createdAt,value
2022-10-11T00:03:46.710Z,100422.03
2022-10-11T00:07:48.533Z,100420.47
2022-10-11T00:11:50.521Z,100418.66
2022-10-11T00:15:52.542Z,100436.56
2022-10-11T00:19:54.367Z,100438.66
2022-10-11T00:23:56.284Z,100435.78
2022-10-11T00:27:58.276Z,100442.28
2022-10-11T00:32:00.159Z,100434.47
2022-10-11T00:36:02.368Z,100449.06
2022-10-11T00:40:17.176Z,100439.59
2022-10-11T00:44:22.567Z,100431.41
2022-10-11T00:48:34.052Z,100442.66
2022-10-11T00:52:41.039Z,100444.75
2022-10-11T00:56:43.062Z,100459.00
2022-10-11T01:00:44.967Z,100467.25
2022-10-11T01:05:01.012Z,100457.88
2022-10-11T01:09:11.528Z,100467.63
2022-10-11T01:14:06.772Z,100477.69
2022-10-11T01:18:27.388Z,100484.38
2022-10-11T01:22:50.618Z,100487.25
2022-10-11T01:27:26.119Z,100488.28
2022-10-11T01:31:52.174Z,100493.47
2022-10-11T01:36:20.080Z,100502.47
2022-10-11T01:40:37.218Z,100493.03
2022-10-11T01:44:39.745Z,100493.25
2022-10-11T01:48:54.269Z,100508.94
2022-10-11T01:52:59.104Z,100498.63
2022-10-11T01:57:32.533Z,100510.13
2022-10-11T02:02:16.310Z,100510.03
2022-10-11T02:06:55.319Z,100514.38
2022-10-11T02:11:11.565Z,100528.22
2022-10-11T02:15:20.300Z,100524.09
2022-10-11T02:19:31.323Z,100533.47
2022-10-11T02:23:45.787Z,100528.31
2022-10-11T02:27:48.046Z,100531.31
2022-10-11T02:31:50.412Z,100537.75
2022-10-11T02:35:59.152Z,100543.00
2022-10-11T02:40:26.018Z,100535.41
2022-10-11T02:44:33.073Z,100537.22
2022-10-11T02:48:35.720Z,100552.31
2022-10-11T02:52:37.770Z,100574.00
2022-10-11T02:56:39.581Z,100574.16
2022-10-11T03:00:41.467Z,100573.56
2022-10-11T03:04:43.321Z,100576.34
2022-10-11T03:08:45.211Z,100583.00
2022-10-11T03:12:47.043Z,100587.50
2022-10-11T03:16:48.881Z,100610.16
2022-10-11T03:20:50.754Z,100608.81
2022-10-11T03:24:52.571Z,100621.75
2022-10-11T03:28:55.117Z,100620.31
2022-10-11T03:32:57.193Z,100620.59
2022-10-11T03:36:59.069Z,100625.75
2022-10-11T03:41:00.874Z,100631.97
2022-10-11T03:45:07.887Z,100633.22
2022-10-11T03:49:09.681Z,100637.75
2022-10-11T03:53:19.199Z,100649.06
2022-10-11T03:57:51.781Z,100646.00
2022-10-11T04:01:43.898Z,100645.63
2022-10-11T04:05:45.784Z,100657.78
2022-10-11T04:09:47.670Z,100646.03
2022-10-11T04:13:49.552Z,100663.31
2022-10-11T04:17:51.331Z,100655.72
2022-10-11T04:21:53.186Z,100670.34
2022-10-11T04:25:55.013Z,100679.16
2022-10-11T04:29:56.819Z,100687.09
2022-10-11T04:33:58.722Z,100688.91
2022-10-11T04:38:00.557Z,100690.44
2022-10-11T04:42:02.410Z,100698.91
2022-10-11T04:46:04.685Z,100694.34
2022-10-11T04:50:07.651Z,100702.81
2022-10-11T04:54:09.812Z,100708.69
2022-10-11T04:58:11.621Z,100722.81
2022-10-11T05:02:13.391Z,100727.88
2022-10-11T05:06:29.735Z,100717.28
2022-10-11T05:10:32.052Z,100724.19
2022-10-11T05:14:33.995Z,100732.63
2022-10-11T05:18:36.056Z,100739.38
2022-10-11T05:22:47.568Z,100747.50
2022-10-11T05:27:21.550Z,100753.31
2022-10-11T05:31:25.817Z,100779.47
2022-10-11T05:35:31.289Z,100775.59
2022-10-11T05:39:33.222Z,100786.84
2022-10-11T05:43:35.205Z,100784.34
2022-10-11T05:47:37.017Z,100798.53
2022-10-11T05:51:39.927Z,100812.03
2022-10-11T05:55:42.905Z,100825.22
2022-10-11T05:59:44.782Z,100829.06
2022-10-11T06:03:46.842Z,100830.19
2022-10-11T06:07:51.084Z,100840.72
2022-10-11T06:11:52.935Z,100848.03
2022-10-11T06:15:58.255Z,100843.34
2022-10-11T06:20:00.266Z,100837.88
2022-10-11T06:24:02.890Z,100828.81
2022-10-11T06:28:05.027Z,100833.25
2022-10-11T06:32:09.377Z,100841.44
2022-10-11T06:36:16.036Z,100836.38
2022-10-11T06:40:18.124Z,100849.16
2022-10-11T06:44:19.987Z,100842.28
2022-10-11T06:48:22.011Z,100842.88
2022-10-11T06:52:23.922Z,100850.66
2022-10-11T06:56:26.653Z,100867.22
2022-10-11T07:00:29.117Z,100865.00
2022-10-11T07:04:41.222Z,100866.03
2022-10-11T07:08:59.198Z,100859.72
2022-10-11T07:13:14.837Z,100871.63
2022-10-11T07:17:18.910Z,100886.19
2022-10-11T07:21:20.755Z,100878.34
2022-10-11T07:25:57.874Z,100856.47
2022-10-11T07:29:59.743Z,100884.03
2022-10-11T07:34:01.721Z,100880.13
2022-10-11T07:38:04.739Z,100875.03
2022-10-11T07:42:06.959Z,100888.28
2022-10-11T07:46:09.683Z,100884.91
2022-10-11T07:50:12.878Z,100913.78
2022-10-11T07:54:14.960Z,100875.03
2022-10-11T07:58:19.426Z,100902.03
2022-10-11T08:02:21.364Z,100897.16
2022-10-11T08:06:27.177Z,100897.97
2022-10-11T08:11:02.475Z,100905.72
2022-10-11T08:15:04.921Z,100897.28
2022-10-11T08:19:07.036Z,100906.72
2022-10-11T08:23:09.590Z,100895.78
2022-10-11T08:27:11.540Z,100901.91
2022-10-11T08:31:14.822Z,100911.47
2022-10-11T08:35:17.151Z,100904.25
2022-10-11T08:39:21.334Z,100906.41
2022-10-11T08:43:59.946Z,100903.41
2022-10-11T08:48:16.282Z,100917.69
2022-10-11T08:52:43.442Z,100906.28
2022-10-11T08:56:45.355Z,100911.59
2022-10-11T09:00:48.797Z,100907.69
2022-10-11T09:04:58.450Z,100913.06
2022-10-11T09:09:31.571Z,100908.97
2022-10-11T09:14:30.120Z,100910.28
2022-10-11T09:19:24.214Z,100915.44
2022-10-11T09:24:06.337Z,100904.59
2022-10-11T09:29:04.617Z,100913.56
2022-10-11T09:33:19.336Z,100910.91
2022-10-11T09:38:10.974Z,100914.63
2022-10-11T09:43:05.798Z,100899.16
2022-10-11T10:02:08.217Z,100869.38
2022-10-11T10:06:26.588Z,100885.06
2022-10-11T10:10:46.896Z,100906.69
2022-10-11T10:15:17.660Z,100911.00
2022-10-11T10:19:33.687Z,100895.97
2022-10-11T10:28:36.242Z,100931.16
2022-10-11T10:33:16.623Z,100897.84
2022-10-11T10:37:44.290Z,100904.78
2022-10-11T10:42:12.056Z,100924.59
2022-10-11T10:46:41.359Z,100916.03
2022-10-11T10:50:59.009Z,100907.97
2022-10-11T10:55:17.895Z,100902.81
2022-10-11T10:59:25.213Z,100918.19
2022-10-11T11:03:42.751Z,100903.34
2022-10-11T11:08:15.679Z,100913.16
2022-10-11T11:12:47.865Z,100915.47
2022-10-11T11:17:30.519Z,100915.22
2022-10-11T11:21:42.735Z,100910.31
2022-10-11T11:26:17.922Z,100902.94
2022-10-11T11:30:33.736Z,100900.34
2022-10-11T11:34:48.347Z,100880.69
2022-10-11T11:38:58.412Z,100898.47
2022-10-11T11:43:07.640Z,100892.59
2022-10-11T11:47:34.311Z,100907.78
2022-10-11T11:51:41.694Z,100885.03
2022-10-11T11:56:07.781Z,100900.84
2022-10-11T12:00:16.733Z,100894.94
2022-10-11T12:04:33.414Z,100893.19
2022-10-11T12:08:37.608Z,100883.94
2022-10-11T12:12:39.495Z,100899.22
2022-10-11T12:17:18.218Z,100879.94
2022-10-11T12:21:39.976Z,100874.19
2022-10-11T12:25:42.440Z,100908.50
2022-10-11T12:29:59.171Z,100874.22
2022-10-11T12:34:42.521Z,100851.28
2022-10-11T12:38:49.494Z,100852.13
2022-10-11T12:43:16.254Z,100869.13
2022-10-11T12:48:14.142Z,100867.28
2022-10-11T12:53:12.960Z,100847.84
2022-10-11T12:57:29.473Z,100859.38
2022-10-11T13:01:47.696Z,100856.44
2022-10-11T13:06:25.109Z,100890.75
2022-10-11T13:10:56.074Z,100856.91
2022-10-11T13:15:07.156Z,100860.56
2022-10-11T13:19:13.137Z,100863.84
2022-10-11T13:23:38.349Z,100860.00
2022-10-11T13:27:40.314Z,100841.88
2022-10-11T13:31:50.430Z,100855.72
2022-10-11T13:35:55.008Z,100860.22
2022-10-11T13:40:00.102Z,100854.91
2022-10-11T13:44:02.004Z,100858.66
2022-10-11T13:48:04.988Z,100864.72
2022-10-11T13:52:35.229Z,100849.06
2022-10-11T13:56:42.907Z,100856.16
2022-10-11T14:01:23.221Z,100860.31
2022-10-11T14:05:43.956Z,100861.94
2022-10-11T14:14:37.576Z,100859.97
2022-10-11T14:18:51.007Z,100844.78
2022-10-11T14:23:05.754Z,100841.50
2022-10-11T14:32:26.876Z,100842.97
2022-10-11T14:36:30.683Z,100856.00
2022-10-11T14:40:46.393Z,100861.78
2022-10-11T14:44:54.650Z,100867.56
2022-10-11T14:48:59.451Z,100850.09
2022-10-11T14:53:05.915Z,100848.13
2022-10-11T14:57:15.900Z,100852.56
2022-10-11T15:01:18.486Z,100853.22
2022-10-11T15:05:24.028Z,100842.47
2022-10-11T15:09:27.026Z,100861.09
2022-10-11T15:13:29.003Z,100865.88
2022-10-11T15:17:32.194Z,100865.88
2022-10-11T15:21:35.589Z,100835.84
2022-10-11T15:25:43.095Z,100854.28
2022-10-11T15:29:45.177Z,100826.56
2022-10-11T15:33:50.298Z,100839.91
2022-10-11T15:37:57.676Z,100853.84
2022-10-11T15:42:09.537Z,100848.88
2022-10-11T15:50:49.095Z,100862.63
2022-10-11T15:54:52.000Z,100862.88
2022-10-11T15:58:54.032Z,100875.00
2022-10-11T16:03:01.705Z,100870.97
2022-10-11T16:07:03.752Z,100868.94
2022-10-11T16:11:11.518Z,100870.44
2022-10-11T16:15:24.748Z,100865.72
2022-10-11T16:20:28.430Z,100875.84
2022-10-11T16:24:36.522Z,100880.16
2022-10-11T16:28:38.631Z,100887.69
2022-10-11T16:32:46.581Z,100886.69
2022-10-11T16:36:55.168Z,100890.22
2022-10-11T16:41:24.657Z,100886.69
2022-10-11T16:45:40.437Z,100894.94
2022-10-11T16:49:50.315Z,100901.59
2022-10-11T16:53:58.030Z,100902.22
2022-10-11T16:58:05.057Z,100891.88
2022-10-11T17:02:22.920Z,100915.78
2022-10-11T17:06:24.809Z,100906.00
2022-10-11T17:10:43.663Z,100913.47
2022-10-11T17:14:50.505Z,100910.00
2022-10-11T17:18:54.763Z,100916.91
2022-10-11T17:23:09.026Z,100932.72
2022-10-11T17:27:38.052Z,100921.13
2022-10-11T17:32:03.379Z,100931.75
2022-10-11T17:36:43.808Z,100931.16
2022-10-11T17:53:17.034Z,100938.16
2022-10-11T18:10:02.247Z,100921.72
2022-10-11T18:14:40.529Z,100937.13
2022-10-11T18:19:09.038Z,100943.09
2022-10-11T18:23:23.802Z,100945.84
2022-10-11T18:27:33.523Z,100936.00
2022-10-11T18:31:35.578Z,100937.00
2022-10-11T18:35:39.426Z,100931.09
2022-10-11T18:39:48.783Z,100936.13
2022-10-11T18:43:55.306Z,100941.34
2022-10-11T18:47:59.586Z,100942.75
2022-10-11T18:52:03.874Z,100951.34
2022-10-11T18:56:17.125Z,100938.06
2022-10-11T19:00:40.864Z,100930.66
2022-10-11T19:04:53.443Z,100941.19
2022-10-11T19:09:23.464Z,100940.97
2022-10-11T19:13:36.569Z,100947.16
2022-10-11T19:34:15.543Z,100934.75
2022-10-11T19:42:23.435Z,100935.13
2022-10-11T19:46:50.396Z,100939.16
2022-10-11T19:50:58.132Z,100941.53
2022-10-11T19:55:00.576Z,100949.13
2022-10-11T19:59:06.520Z,100955.03
2022-10-11T20:03:09.110Z,100954.91
2022-10-11T20:07:11.169Z,100947.09
2022-10-11T20:11:13.491Z,100957.53
2022-10-11T20:15:15.575Z,100948.25
2022-10-11T20:19:17.626Z,100952.78
2022-10-11T20:23:23.735Z,100955.34
2022-10-11T20:27:31.934Z,100960.13
2022-10-11T20:31:35.332Z,100961.31
2022-10-11T20:35:38.549Z,100951.56
2022-10-11T20:39:40.528Z,100955.13
2022-10-11T20:43:42.937Z,100961.06
2022-10-11T20:47:45.019Z,100974.75
2022-10-11T20:51:46.842Z,100960.47
2022-10-11T20:55:49.076Z,100973.03
2022-10-11T20:59:50.904Z,100956.50
2022-10-11T21:03:52.897Z,100978.31
2022-10-11T21:07:54.837Z,100966.50
2022-10-11T21:11:56.685Z,100972.25
2022-10-11T21:16:12.483Z,100982.19
2022-10-11T21:20:14.442Z,100975.56
2022-10-11T21:24:16.220Z,100981.84
2022-10-11T21:28:18.049Z,100966.19
2022-10-11T21:32:19.903Z,100991.22
2022-10-11T21:36:23.278Z,100983.41
2022-10-11T21:40:25.713Z,100986.81
2022-10-11T21:44:27.523Z,100986.44
2022-10-11T21:48:29.635Z,100987.56
2022-10-11T21:52:31.756Z,100985.56
2022-10-11T21:56:33.914Z,100995.72
2022-10-11T22:00:35.738Z,100981.72
2022-10-11T22:04:37.555Z,100979.13
2022-10-11T22:08:39.462Z,100986.22
2022-10-11T22:12:41.249Z,100982.09
2022-10-11T22:16:43.097Z,100985.63
2022-10-11T22:20:44.965Z,100993.34
2022-10-11T22:24:46.810Z,100985.03
2022-10-11T22:28:48.988Z,100994.19
2022-10-11T22:32:51.468Z,100996.69
2022-10-11T22:36:53.396Z,101002.22
2022-10-11T22:40:57.959Z,100995.03
2022-10-11T22:45:00.095Z,100992.22
2022-10-11T22:49:01.893Z,101009.41
2022-10-11T22:53:05.862Z,101005.13
2022-10-11T22:57:07.627Z,101002.31
2022-10-11T23:01:10.950Z,101008.34
2022-10-11T23:05:12.727Z,101006.69
2022-10-11T23:09:14.553Z,101014.50
2022-10-11T23:13:16.392Z,101001.47
2022-10-11T23:17:18.229Z,101013.41
2022-10-11T23:21:20.167Z,101005.22
2022-10-11T23:25:21.962Z,101006.66
2022-10-11T23:29:23.758Z,101006.81
2022-10-11T23:33:25.601Z,101006.03
2022-10-11T23:37:27.373Z,101010.88
2022-10-11T23:41:29.558Z,101007.16
2022-10-11T23:45:31.317Z,101010.88
2022-10-11T23:49:33.104Z,101009.09
2022-10-11T23:53:35.250Z,100999.59
2022-10-11T23:57:37.353Z,101003.88
